WetterOnline ( https://www.wetteronline.de )

Wetter aktuell Leck

Aktuelles Wetter: Leck (17m)

6-stündlich | Neueste Meldungen
Ortszeit Temperatur Wetter
Do, 12.12. 13:00 5.0° C bewölkt
Do, 12.12. 7:00 4.7° C bewölkt
Do, 12.12. 1:00 5.0° C bewölkt
Mi, 11.12. 19:00 5.5° C bedeckt
Mi, 11.12. 13:00 6.9° C bedeckt
Mi, 11.12. 7:00 6.1° C Regen
Mi, 11.12. 1:00 4.9° C bedeckt
Di, 10.12. 19:00 4.0° C bedeckt
Ortszeit Temperatur Wetter
Do, 12.12. 14:00 4.9° C Sprühregen
Do, 12.12. 13:50 4.9° C Sprühregen
Do, 12.12. 13:40 4.7° C Regen
Do, 12.12. 13:30 5.3° C leichter Regen
Do, 12.12. 13:20 5.3° C leichter Regen
Do, 12.12. 13:10 5.3° C bewölkt
Do, 12.12. 13:00 5.0° C bewölkt
Do, 12.12. 12:30 5.0° C leichter Regen
Do, 12.12. 12:00 5.9° C leichter Regen
Do, 12.12. 11:30 5.7° C bewölkt
Do, 12.12. 11:00 5.3° C Sprühregen
Ortszeit Relative Feuchte Sichtweite
Do, 12.12. 13:00 88% 45 km
Do, 12.12. 7:00 91% 9 km
Do, 12.12. 1:00 95% 5.0 km
Mi, 11.12. 19:00 95% 12 km
Mi, 11.12. 13:00 93% 16 km
Mi, 11.12. 7:00 94% 14 km
Mi, 11.12. 1:00 79% 27 km
Di, 10.12. 19:00 79% 30 km
Ortszeit Relative Feuchte Sichtweite
Do, 12.12. 14:00 86% 24 km
Do, 12.12. 13:50 86% -
Do, 12.12. 13:40 89% -
Do, 12.12. 13:30 87% 10 km
Do, 12.12. 13:20 87% -
Do, 12.12. 13:10 88% -
Do, 12.12. 13:00 88% 45 km
Do, 12.12. 12:30 89% -
Do, 12.12. 12:00 91% 10 km
Do, 12.12. 11:30 93% 7 km
Do, 12.12. 11:00 95% 4.9 km
Ortszeit Niederschlagsmenge Niederschlagsart
Do, 12.12. 13:00 0.6 l/m2 in 6 Std. Regen
Do, 12.12. 7:00 0.0 l/m2 in 12 Std. -
Do, 12.12. 1:00 0.0 l/m2 in 6 Std. -
Mi, 11.12. 19:00 0.3 l/m2 in 12 Std. -
Mi, 11.12. 13:00 0.3 l/m2 in 6 Std. Regen
Mi, 11.12. 7:00 4 l/m2 in 12 Std. Schnee, Regen
Mi, 11.12. 1:00 0.3 l/m2 in 6 Std. Regen
Di, 10.12. 19:00 0.1 l/m2 in 12 Std. -
Ortszeit Niederschlagsmenge Niederschlagsart
Do, 12.12. 14:00 0.6 l/m2 in 1 Std. Regen
Do, 12.12. 13:50 keine Meldung -
Do, 12.12. 13:40 keine Meldung -
Do, 12.12. 13:30 0.1 l/m2 in 1 Std. -
Do, 12.12. 13:20 keine Meldung -
Do, 12.12. 13:10 keine Meldung -
Do, 12.12. 13:00 0.1 l/m2 in 1 Std. Regen
Do, 12.12. 12:30 0.1 l/m2 in 1 Std. -
Do, 12.12. 12:00 0.1 l/m2 in 1 Std. Regen
Do, 12.12. 11:30 0.1 l/m2 in 1 Std. Schneeregen
Do, 12.12. 11:00 0.5 l/m2 in 1 Std. Regen
Ortszeit Stärke Spitze Richtung
km/h Bft. km/h Grad Sektor
Do, 12.12. 13:00 17 3 35 210° SW
Do, 12.12. 7:00 14 3 25 180° S
Do, 12.12. 1:00 7 2 18 160° S
Mi, 11.12. 19:00 11 2 36 170° S
Mi, 11.12. 13:00 22 4 47 210° SW
Mi, 11.12. 7:00 33 5 67 210° SW
Mi, 11.12. 1:00 43 6 70 190° S
Di, 10.12. 19:00 36 5 54 180° S
Ortszeit Stärke Spitze Richtung
km/h Bft. km/h Grad Sektor
Do, 12.12. 14:00 22 4 32 210° SW
Do, 12.12. 13:50 22 4 - 210° SW
Do, 12.12. 13:40 22 4 - 210° SW
Do, 12.12. 13:30 19 3 31 210° SW
Do, 12.12. 13:20 19 3 - 210° SW
Do, 12.12. 13:10 18 3 - 210° SW
Do, 12.12. 13:00 17 3 31 210° SW
Do, 12.12. 12:30 20 4 31 240° SW
Do, 12.12. 12:00 22 4 32 210° SW
Do, 12.12. 11:30 20 4 31 200° S
Do, 12.12. 11:00 20 4 35 180° S
Ortszeit Untergrenze Bedeckung Gattung
total tief tief mittel hoch
Do, 12.12. 13:00 780 m 7/8 7/8 - - -
Do, 12.12. 7:00 390 m 7/8 7/8 - - -
Do, 12.12. 1:00 270 m 8/8 7/8 - - -
Mi, 11.12. 19:00 240 m 8/8 8/8 - - -
Mi, 11.12. 13:00 210 m 8/8 8/8 - - -
Mi, 11.12. 7:00 210 m 8/8 8/8 - - -
Mi, 11.12. 1:00 660 m 8/8 8/8 - - -
Di, 10.12. 19:00 3900 m 8/8 8/8 - - -
Ortszeit Bedeckungsgrad in Achtel und Wolkenuntergrenze
Do, 12.12. 14:00 1(420m) 5(690m) 7(1020m)
Do, 12.12. 13:50 1(420m) 5(690m) 7(1020m)
Do, 12.12. 13:40 1(30m) 6(660m) 8(870m)
Do, 12.12. 13:30 6(660m) 7(840m) 8(1170m)
Do, 12.12. 13:20 6(660m) 7(840m) 8(1170m)
Do, 12.12. 13:10 6(720m) 7(1230m) 7(1500m)
Do, 12.12. 13:00 3(780m) 7(1350m) 7(1500m)
Do, 12.12. 12:30 6(300m) 7(570m) 8(990m)
Do, 12.12. 12:00 7(300m) 7(540m) 8(1380m)
Do, 12.12. 11:30 7(240m) 7(360m)
Do, 12.12. 11:00 7(210m)
Ortszeit Luftdruck NN (hPa) Tendenz (hPa in 3 Std.)
Do, 12.12. 13:00 997 - 1,3
Do, 12.12. 7:00 999 - 0,9
Do, 12.12. 1:00 1001 - 1,4
Mi, 11.12. 19:00 1003 - 0,5
Mi, 11.12. 13:00 1005 - 0,8
Mi, 11.12. 7:00 1005 + 0,4
Mi, 11.12. 1:00 1006 - 2,6
Di, 10.12. 19:00 1013 - 3,6
Ortszeit Luftdruck NN (hPa) Tendenz (hPa in 3 Std.)
Do, 12.12. 14:00 996 - 1,3
Do, 12.12. 13:50 996 keine Meldung
Do, 12.12. 13:40 996 keine Meldung
Do, 12.12. 13:30 996 - 1,3
Do, 12.12. 13:20 996 keine Meldung
Do, 12.12. 13:10 996 keine Meldung
Do, 12.12. 13:00 997 - 1,3
Do, 12.12. 12:30 997 - 1,0
Do, 12.12. 12:00 997 - 1,2
Do, 12.12. 11:30 997 - 1,2
Do, 12.12. 11:00 997 - 1,0
Ortszeit Schneehöhe (cm)
Do, 12.12. 13:00 0
Do, 12.12. 7:00 0
Do, 12.12. 1:00 0
Mi, 11.12. 19:00 0
Mi, 11.12. 13:00 0
Mi, 11.12. 7:00 0
Mi, 11.12. 1:00 0
Di, 10.12. 19:00 0
Ortszeit Schneehöhe (cm)
Do, 12.12. 14:00 0
Do, 12.12. 13:50 0
Do, 12.12. 13:40 0
Do, 12.12. 13:30 0
Do, 12.12. 13:20 0
Do, 12.12. 13:10 0
Do, 12.12. 13:00 0
Do, 12.12. 12:30 0
Do, 12.12. 12:00 0
Do, 12.12. 11:30 0
Do, 12.12. 11:00 0
Link zu dieser Seite / Seite empfehlen

Das Wetter in ...